Time;durP1;ratioP1;P1;durP2;ratioP2;P2;SDS_P1;SDS_P2;PMS_P1;PMS_P2;Temp;Humidity;BMP_temperature;BMP_pressure;BME280_temperature;BME280_humidity;BME280_pressure;Samples;Min_cycle;Max_cycle;Signal;HPM_P1;HPM_P2
2022/09/20 00:01:09;;;;;;;9.50;2.53;;;14.10;77.30;;;16.93;56.86;101772.31;5033418;28;20210;-54
2022/09/20 00:03:42;;;;;;;5.77;2.03;;;14.10;77.10;;;16.93;56.91;101782.09;5035050;28;20226;-56
2022/09/20 00:06:44;;;;;;;6.57;2.17;;;14.10;77.10;;;16.84;57.18;101775.28;5033764;28;20205;-54
2022/09/20 00:09:11;;;;;;;7.70;1.87;;;14.10;77.30;;;16.88;57.32;101782.69;5033554;28;20267;-55
2022/09/20 00:11:39;;;;;;;5.10;2.10;;;14.00;76.80;;;16.85;56.85;101780.41;5033344;28;20195;-55
2022/09/20 00:14:07;;;;;;;4.70;1.87;;;14.00;76.70;;;16.81;56.72;101783.63;5033768;28;20248;-52
2022/09/20 00:16:39;;;;;;;5.27;1.57;;;14.00;76.70;;;16.78;56.51;101784.03;5033528;28;20237;-56
2022/09/20 00:19:16;;;;;;;5.67;1.73;;;14.00;76.70;;;16.74;56.79;101777.41;5034735;28;20214;-56
2022/09/20 00:21:44;;;;;;;5.80;1.70;;;13.90;76.60;;;16.73;56.52;101781.09;5033316;28;20198;-54
2022/09/20 00:24:11;;;;;;;4.93;1.83;;;13.90;76.70;;;16.70;56.55;101786.78;5033488;28;20256;-55
2022/09/20 00:26:39;;;;;;;5.40;1.70;;;13.90;76.80;;;16.68;56.66;101783.50;5033737;28;20197;-54
2022/09/20 00:29:07;;;;;;;3.70;1.50;;;13.80;76.90;;;16.65;56.40;101778.56;5033474;28;20683;-54
2022/09/20 00:31:37;;;;;;;4.23;1.50;;;13.80;76.90;;;16.61;56.72;101775.47;5032942;28;20210;-54
2022/09/20 00:36:54;;;;;;;2.60;1.60;;;13.70;77.10;;;16.54;56.62;101781.72;5034775;28;20233;-53
2022/09/20 00:39:21;;;;;;;4.90;1.50;;;13.70;77.20;;;16.51;56.89;101782.06;5033288;28;20749;-55
2022/09/20 00:41:48;;;;;;;4.90;1.40;;;13.70;77.40;;;16.49;57.06;101786.75;5032577;28;20194;-55
2022/09/20 00:44:52;;;;;;;4.30;1.57;;;13.60;77.60;;;16.39;57.00;101791.50;5032839;28;20190;-54
2022/09/20 00:47:30;;;;;;;6.03;1.57;;;13.60;77.90;;;16.38;57.37;101793.34;5031743;28;20182;-55
2022/09/20 00:50:11;;;;;;;4.63;1.57;;;13.50;77.90;;;16.37;57.34;101796.19;5032795;28;20202;-53
2022/09/20 00:52:42;;;;;;;2.73;1.63;;;13.50;78.00;;;16.35;57.67;101806.19;5033455;28;20221;-53
2022/09/20 00:55:11;;;;;;;4.37;1.73;;;13.50;78.40;;;16.34;57.58;101804.53;5032618;28;20198;-56
2022/09/20 00:57:40;;;;;;;6.10;1.80;;;13.50;78.40;;;16.33;57.39;101810.88;5032646;28;20863;-56
2022/09/20 01:00:10;;;;;;;5.97;1.97;;;13.50;78.60;;;16.33;57.92;101818.84;5032588;28;20183;-55
2022/09/20 01:02:44;;;;;;;6.23;2.20;;;13.50;78.90;;;16.32;57.74;101814.53;5032163;28;20261;-57
2022/09/20 01:05:16;;;;;;;5.37;1.90;;;13.40;78.90;;;16.32;57.98;101815.34;5032527;28;20186;-55
2022/09/20 01:07:47;;;;;;;5.60;2.00;;;13.40;79.10;;;16.33;58.28;101816.19;5032529;28;20185;-53
2022/09/20 01:10:14;;;;;;;7.83;1.90;;;13.50;79.60;;;16.35;58.05;101814.16;5033725;28;20717;-55
2022/09/20 01:12:45;;;;;;;4.37;1.57;;;13.50;79.50;;;16.37;58.20;101812.16;5032346;28;20214;-53
2022/09/20 01:15:14;;;;;;;5.87;2.10;;;13.50;79.60;;;16.36;58.14;101810.47;5032803;28;20197;-53
2022/09/20 01:17:48;;;;;;;7.80;2.13;;;13.40;79.40;;;16.36;58.05;101813.13;5034048;28;20194;-56
2022/09/20 01:20:23;;;;;;;6.87;2.00;;;13.50;79.60;;;16.38;57.89;101819.13;5032616;28;20187;-53
2022/09/20 01:23:27;;;;;;;9.60;2.20;;;13.50;79.60;;;16.37;58.69;101817.47;5032484;28;20690;-54
2022/09/20 01:26:57;;;;;;;6.63;1.77;;;13.50;80.70;;;16.41;58.63;101824.88;5035062;28;20186;-55
2022/09/20 01:29:41;;;;;;;6.77;2.03;;;13.60;79.90;;;16.51;58.42;101827.25;5034005;28;20210;-55
2022/09/20 01:32:18;;;;;;;3.40;1.50;;;13.60;79.70;;;16.61;57.89;101835.78;5032183;28;20233;-54
2022/09/20 01:35:10;;;;;;;2.73;1.20;;;13.70;79.30;;;16.69;58.06;101835.66;5031939;28;20289;-55
2022/09/20 01:38:04;;;;;;;4.47;1.50;;;13.70;78.60;;;16.74;57.51;101835.91;5032286;28;20194;-56
2022/09/20 01:40:42;;;;;;;3.73;0.90;;;13.80;78.10;;;16.82;57.15;101839.31;5031834;28;20190;-56
2022/09/20 01:43:24;;;;;;;1.10;1.00;;;13.80;77.60;;;16.87;56.79;101844.06;5031813;28;20213;-56
2022/09/20 01:45:53;;;;;;;2.77;0.90;;;13.90;77.40;;;16.98;56.65;101853.34;5032791;28;20727;-56
2022/09/20 01:48:32;;;;;;;1.57;0.83;;;14.00;77.10;;;17.04;56.52;101853.44;5031801;28;20854;-56
2022/09/20 01:51:44;;;;;;;1.27;0.80;;;14.00;77.00;;;17.06;56.31;101851.41;5031555;28;20188;-55
2022/09/20 01:54:57;;;;;;;1.93;0.90;;;14.10;77.30;;;17.13;56.33;101839.00;4988700;28;20210;-55
2022/09/20 01:58:19;;;;;;;2.47;0.77;;;14.20;77.10;;;17.16;56.26;101843.94;5031901;28;20598;-56
2022/09/20 02:01:15;;;;;;;2.10;0.77;;;14.20;76.50;;;17.17;56.07;101848.25;5027263;28;20214;-57
2022/09/20 02:04:08;;;;;;;2.17;1.27;;;14.30;76.50;;;17.19;55.94;101851.53;5031683;28;20688;-56
2022/09/20 02:07:04;;;;;;;0.97;0.80;;;14.30;76.70;;;17.20;56.19;101853.19;5031829;28;20263;-55
2022/09/20 02:10:06;;;;;;;2.10;0.80;;;14.30;77.00;;;17.20;56.07;101845.22;5031702;28;20210;-57
2022/09/20 02:13:02;;;;;;;5.20;1.17;;;14.30;76.90;;;17.23;56.40;101844.00;5031405;28;20682;-55
2022/09/20 02:16:10;;;;;;;1.30;0.80;;;14.40;77.50;;;17.26;56.72;101836.44;5018709;28;20210;-53
2022/09/20 02:19:05;;;;;;;2.20;1.00;;;14.40;77.40;;;17.35;56.69;101837.97;5032706;28;20274;-54
2022/09/20 02:21:41;;;;;;;1.10;0.83;;;14.50;77.70;;;17.45;56.55;101835.78;5031317;28;20195;-59
2022/09/20 02:24:27;;;;;;;1.43;0.90;;;14.50;78.30;;;17.51;56.67;101840.41;5031438;28;20198;-54
2022/09/20 02:27:12;;;;;;;2.50;1.07;;;14.60;77.50;;;17.59;56.02;101850.88;5031152;28;20194;-56
2022/09/20 02:29:51;;;;;;;2.70;1.10;;;14.70;77.10;;;17.67;56.08;101857.09;5030915;28;20225;-54
2022/09/20 02:32:45;;;;;;;1.97;0.87;;;14.70;76.70;;;17.65;55.72;101846.66;5030802;28;20268;-56
2022/09/20 02:35:39;;;;;;;3.83;1.37;;;14.80;76.40;;;17.65;55.62;101861.78;5032609;28;20245;-54
2022/09/20 02:38:35;;;;;;;3.23;1.40;;;14.80;75.70;;;17.58;55.52;101851.09;5031407;28;20186;-56
2022/09/20 02:41:35;;;;;;;3.47;1.63;;;14.80;75.50;;;17.47;55.75;101860.38;5031200;28;20191;-55
2022/09/20 02:44:14;;;;;;;2.70;1.67;;;14.70;76.00;;;17.48;56.14;101850.56;5031370;28;20179;-53
2022/09/20 02:46:54;;;;;;;3.90;1.93;;;14.70;76.60;;;17.47;55.94;101849.72;5033269;28;20669;-54
2022/09/20 02:49:39;;;;;;;3.53;1.83;;;14.60;76.60;;;17.42;55.97;101852.16;5035191;28;20583;-53
2022/09/20 02:52:19;;;;;;;5.73;1.80;;;14.60;76.70;;;17.38;56.43;101845.56;5034636;28;20214;-53
2022/09/20 02:54:59;;;;;;;5.40;2.13;;;14.60;77.00;;;17.33;56.12;101853.31;5054959;28;20669;-53
2022/09/20 02:57:50;;;;;;;7.73;2.10;;;14.50;77.20;;;17.28;56.43;101839.75;5055267;28;20193;-54
2022/09/20 03:00:24;;;;;;;4.87;1.60;;;14.40;77.60;;;17.30;57.23;101835.06;5055450;28;20240;-55
2022/09/20 03:03:07;;;;;;;5.97;2.17;;;14.40;78.00;;;17.32;56.94;101835.69;5054569;28;20569;-56
2022/09/20 03:05:49;;;;;;;7.93;2.30;;;14.40;78.30;;;17.35;56.76;101839.81;5054843;28;20963;-53
2022/09/20 03:08:35;;;;;;;7.87;2.80;;;14.50;78.10;;;17.32;56.86;101846.34;5055065;28;20263;-52
2022/09/20 03:11:17;;;;;;;4.43;2.13;;;14.40;78.00;;;17.30;56.78;101851.03;5052886;28;20247;-52
2022/09/20 03:14:07;;;;;;;5.40;2.03;;;14.40;77.90;;;17.25;56.84;101845.47;5054663;28;20210;-54
2022/09/20 03:16:56;;;;;;;4.93;1.47;;;14.40;78.00;;;17.22;57.00;101843.19;5054802;28;20179;-53
2022/09/20 03:19:47;;;;;;;3.47;1.53;;;14.30;77.90;;;17.15;56.90;101844.94;5054788;28;20217;-53
2022/09/20 03:22:32;;;;;;;4.53;2.03;;;14.20;78.80;;;17.13;57.17;101860.28;5054491;28;20217;-52
2022/09/20 03:25:33;;;;;;;5.37;2.27;;;14.20;78.50;;;17.07;57.09;101863.69;5054564;28;20670;-52
2022/09/20 03:28:22;;;;;;;4.10;1.90;;;14.20;78.30;;;17.02;57.25;101852.78;5037169;28;20198;-54
2022/09/20 03:31:07;;;;;;;7.17;2.03;;;14.20;78.30;;;16.97;57.05;101862.38;5033932;28;20828;-54
2022/09/20 03:33:51;;;;;;;4.77;1.73;;;14.10;78.30;;;16.90;57.72;101851.66;5034039;28;20268;-55
2022/09/20 03:36:41;;;;;;;3.10;1.37;;;14.10;78.80;;;16.85;57.79;101848.75;5034244;28;20249;-53
2022/09/20 03:39:48;;;;;;;4.63;1.77;;;14.00;78.80;;;16.81;57.84;101863.41;5034123;28;20233;-57
2022/09/20 03:42:21;;;;;;;7.83;2.77;;;14.00;79.00;;;16.83;57.59;101866.69;5033277;28;20226;-56
2022/09/20 03:45:26;;;;;;;4.47;2.47;;;14.00;78.50;;;16.73;57.60;101871.50;5034226;28;20256;-54
2022/09/20 03:48:35;;;;;;;9.50;2.53;;;13.90;78.40;;;16.66;57.81;101875.94;5033816;28;20273;-56
2022/09/20 03:51:24;;;;;;;4.53;2.23;;;13.90;78.40;;;16.60;57.59;101881.97;5018611;28;20260;-53
2022/09/20 03:54:49;;;;;;;7.20;1.93;;;13.80;78.10;;;16.47;57.45;101879.13;5034035;28;20206;-56
2022/09/20 03:57:53;;;;;;;7.93;2.17;;;13.80;78.10;;;16.39;57.58;101895.16;5034044;28;20202;-55
2022/09/20 04:00:29;;;;;;;6.10;1.97;;;13.70;78.20;;;16.38;57.83;101888.22;5034685;28;20526;-55
2022/09/20 04:03:22;;;;;;;6.40;2.10;;;13.60;78.40;;;16.32;57.80;101888.94;5033575;28;20222;-55
2022/09/20 04:06:16;;;;;;;4.10;1.47;;;13.50;78.30;;;16.30;57.67;101890.94;5033679;28;20547;-57
2022/09/20 04:09:26;;;;;;;5.30;2.13;;;13.50;78.60;;;16.26;58.23;101885.16;5033378;28;20190;-54
2022/09/20 04:12:06;;;;;;;7.13;2.13;;;13.50;78.90;;;16.30;58.56;101893.59;5033155;28;20202;-55
2022/09/20 04:14:44;;;;;;;6.63;2.53;;;13.50;79.60;;;16.36;58.64;101890.19;5032049;28;20254;-56
2022/09/20 04:17:30;;;;;;;7.43;1.90;;;13.50;79.60;;;16.41;58.54;101888.66;5034419;28;20186;-58
2022/09/20 04:20:06;;;;;;;5.53;2.60;;;13.60;79.50;;;16.49;58.14;101895.72;5033258;28;20252;-56
2022/09/20 04:22:34;;;;;;;6.27;1.97;;;13.70;79.40;;;16.55;58.13;101897.66;5032877;28;20214;-54
2022/09/20 04:25:13;;;;;;;4.63;1.80;;;13.70;78.70;;;16.54;57.98;101894.19;5033112;28;20656;-52
2022/09/20 04:27:49;;;;;;;7.90;2.47;;;13.70;78.30;;;16.58;58.00;101900.78;5033448;28;20209;-55
2022/09/20 04:30:20;;;;;;;6.30;2.43;;;13.80;78.70;;;16.63;57.73;101901.03;5033120;28;20272;-53
2022/09/20 04:32:59;;;;;;;7.33;2.43;;;13.80;78.40;;;16.68;57.43;101905.81;5032661;28;20571;-55
2022/09/20 04:38:29;;;;;;;4.97;1.90;;;13.90;78.10;;;16.76;57.48;101913.66;5052832;28;20222;-56
2022/09/20 04:41:35;;;;;;;8.17;2.23;;;14.00;78.00;;;16.75;57.06;101914.69;5052453;28;20197;-56
2022/09/20 04:44:51;;;;;;;6.13;2.53;;;14.00;77.40;;;16.73;57.18;101908.72;5052796;28;20182;-56
2022/09/20 04:48:07;;;;;;;4.60;2.10;;;14.00;76.80;;;16.70;57.36;101915.25;5052699;28;20214;-54
2022/09/20 04:51:27;;;;;;;7.70;1.93;;;14.00;77.10;;;16.69;57.20;101912.75;5049743;28;20287;-56
2022/09/20 04:54:46;;;;;;;7.50;2.60;;;14.00;77.30;;;16.71;57.44;101910.75;5052429;28;20255;-53
2022/09/20 04:58:06;;;;;;;6.67;2.70;;;14.10;77.50;;;16.73;57.31;101911.41;5052642;28;20194;-56
2022/09/20 05:01:02;;;;;;;5.40;2.40;;;14.00;77.40;;;16.78;57.46;101916.97;5052205;28;20178;-58
2022/09/20 05:04:21;;;;;;;7.60;2.10;;;14.10;77.50;;;16.80;57.06;101922.94;5052805;28;20569;-53
2022/09/20 05:07:25;;;;;;;5.97;2.20;;;14.10;77.60;;;16.83;57.10;101925.19;5015531;28;20730;-54
2022/09/20 05:10:29;;;;;;;7.20;3.07;;;14.10;77.20;;;16.88;56.86;101928.13;5033906;28;20221;-56
2022/09/20 05:13:16;;;;;;;7.87;2.90;;;14.10;77.00;;;16.88;57.03;101936.09;5032097;28;20244;-54
2022/09/20 05:15:59;;;;;;;7.17;2.63;;;14.10;77.10;;;16.91;56.85;101930.44;5032081;28;20194;-54
2022/09/20 05:19:06;;;;;;;7.47;2.93;;;14.10;77.10;;;16.88;56.84;101938.78;5032091;28;20579;-54
2022/09/20 05:22:12;;;;;;;7.17;2.63;;;14.10;77.00;;;16.83;56.84;101946.47;5030607;28;20678;-56
2022/09/20 05:25:24;;;;;;;5.80;2.20;;;14.00;77.20;;;16.80;56.90;101952.19;5028996;28;20234;-56
2022/09/20 05:28:01;;;;;;;8.73;2.70;;;14.00;78.40;;;16.87;57.10;101953.09;5042426;28;20671;-56
2022/09/20 05:30:39;;;;;;;7.60;3.20;;;14.00;78.00;;;16.93;57.31;101952.34;5031484;28;20210;-56
2022/09/20 05:33:22;;;;;;;7.43;2.50;;;14.00;77.90;;;16.95;56.80;101949.50;5031955;28;20714;-54
2022/09/20 05:36:05;;;;;;;7.97;2.43;;;14.00;77.90;;;16.98;56.80;101941.97;5031832;28;20171;-55
2022/09/20 05:38:47;;;;;;;7.00;2.83;;;14.00;77.90;;;17.04;57.54;101953.72;5031734;28;20195;-54
2022/09/20 05:41:32;;;;;;;6.17;2.80;;;14.10;78.70;;;17.10;57.24;101948.47;5031318;28;20316;-55
2022/09/20 05:44:18;;;;;;;8.83;3.90;;;14.10;78.20;;;17.15;57.16;101954.03;5050148;28;20202;-57
2022/09/20 05:47:03;;;;;;;6.43;2.80;;;14.20;78.00;;;17.18;57.01;101950.19;5051312;28;20906;-54
2022/09/20 05:49:54;;;;;;;5.33;2.47;;;14.20;78.20;;;17.19;56.64;101947.31;5051974;28;20198;-58
2022/09/20 05:52:40;;;;;;;4.93;2.80;;;14.20;78.20;;;17.20;56.90;101946.31;5051126;28;20213;-56
2022/09/20 05:55:45;;;;;;;7.57;2.33;;;14.20;78.40;;;17.19;57.14;101942.00;5051054;28;20174;-56
2022/09/20 05:58:38;;;;;;;8.40;3.23;;;14.20;79.30;;;17.20;57.04;101942.84;5050966;28;20193;-52
2022/09/20 06:01:14;;;;;;;8.20;2.93;;;14.20;79.00;;;17.20;57.25;101943.66;5049014;28;20241;-53
2022/09/20 06:03:53;;;;;;;8.17;3.33;;;14.20;79.10;;;17.24;57.85;101952.91;5051221;28;20217;-53
2022/09/20 06:06:29;;;;;;;8.77;2.43;;;14.20;79.70;;;17.32;58.20;101952.81;5050823;28;20627;-55
2022/09/20 06:09:36;;;;;;;5.87;2.50;;;14.30;80.10;;;17.39;57.68;101956.38;5051893;28;20217;-56
2022/09/20 06:12:25;;;;;;;8.13;2.60;;;14.40;79.60;;;17.49;57.50;101954.22;5049477;28;20222;-56
2022/09/20 06:15:02;;;;;;;6.53;3.10;;;14.50;79.30;;;17.56;57.34;101963.13;5050869;28;20193;-56
2022/09/20 06:17:38;;;;;;;5.30;2.80;;;14.50;79.00;;;17.61;57.02;101961.72;5035354;28;20198;-55
2022/09/20 06:20:23;;;;;;;5.40;2.87;;;14.50;78.80;;;17.62;57.19;101969.50;5031559;28;20265;-56
2022/09/20 06:22:57;;;;;;;4.97;2.70;;;14.60;79.10;;;17.66;57.24;101967.31;5035199;28;20348;-56
2022/09/20 06:25:33;;;;;;;5.80;2.50;;;14.60;78.90;;;17.71;57.30;101972.88;5034937;28;20633;-56
2022/09/20 06:28:12;;;;;;;4.73;2.40;;;14.70;79.30;;;17.77;57.04;101980.94;5035019;28;20190;-55
2022/09/20 06:30:45;;;;;;;7.00;2.67;;;14.70;78.80;;;17.82;56.74;101983.84;5034680;28;20286;-56
2022/09/20 06:33:16;;;;;;;7.70;2.73;;;14.80;78.70;;;17.87;56.69;101988.59;5036128;28;20321;-56
2022/09/20 06:35:51;;;;;;;5.97;2.17;;;14.80;78.30;;;17.91;56.77;101973.88;5034536;28;20749;-56
2022/09/20 06:41:35;;;;;;;3.77;2.20;;;14.90;78.00;;;17.99;56.09;101995.91;5035506;28;20193;-58
2022/09/20 06:44:05;;;;;;;11.47;4.97;;;15.00;77.70;;;18.03;56.40;101994.50;5034597;28;20195;-54
2022/09/20 06:46:35;;;;;;;6.10;3.00;;;15.00;77.90;;;18.09;56.33;101996.38;5053868;28;20520;-54
2022/09/20 06:49:03;;;;;;;6.07;2.60;;;15.00;77.70;;;18.16;56.03;101999.09;5053623;28;20213;-57
2022/09/20 06:51:38;;;;;;;6.97;2.50;;;15.10;77.40;;;18.17;55.43;102000.75;5053058;28;20213;-57
2022/09/20 06:54:16;;;;;;;3.80;2.90;;;15.10;76.60;;;18.16;55.48;102004.44;5053745;28;20701;-54
2022/09/20 06:56:45;;;;;;;4.67;2.47;;;15.10;76.80;;;18.24;55.75;102006.94;5052838;28;20182;-57
2022/09/20 06:59:14;;;;;;;11.87;2.70;;;15.10;77.60;;;18.29;55.47;102009.84;5052870;28;20301;-57
2022/09/20 07:01:42;;;;;;;4.07;2.80;;;15.10;77.00;;;18.35;55.38;102009.06;5052438;28;20194;-57
2022/09/20 07:04:09;;;;;;;5.90;2.60;;;15.20;77.30;;;18.41;55.34;102018.97;5052903;28;20186;-57
2022/09/20 07:06:37;;;;;;;6.67;2.23;;;15.20;76.90;;;18.52;55.22;102015.78;5047793;28;20195;-57
2022/09/20 07:09:07;;;;;;;4.60;2.40;;;15.20;76.90;;;18.68;55.02;102020.84;5033348;28;20199;-57
2022/09/20 07:11:34;;;;;;;5.57;3.17;;;15.30;77.30;;;18.82;54.84;102019.91;5033730;28;20214;-53
2022/09/20 07:14:02;;;;;;;8.60;2.87;;;15.40;77.10;;;18.93;54.21;102021.16;5034379;28;20194;-55
2022/09/20 07:16:29;;;;;;;6.50;2.57;;;15.50;76.50;;;18.96;53.98;102019.94;5034164;28;20202;-55
2022/09/20 07:18:57;;;;;;;9.97;3.57;;;15.60;75.60;;;18.96;53.71;102022.63;5034191;28;20257;-54
2022/09/20 07:21:24;;;;;;;4.60;2.23;;;15.70;75.70;;;18.98;53.89;102025.91;5033753;28;20230;-54
2022/09/20 07:23:52;;;;;;;7.27;2.70;;;15.70;75.90;;;19.02;54.07;102022.66;5042346;28;20258;-54
2022/09/20 07:26:25;;;;;;;7.57;2.80;;;15.80;75.80;;;19.08;53.81;102029.03;5049414;28;20227;-56
2022/09/20 07:28:54;;;;;;;4.27;2.30;;;15.80;75.30;;;19.14;53.52;102037.06;5052517;28;20690;-54
2022/09/20 07:31:24;;;;;;;8.73;2.73;;;15.80;75.30;;;19.21;53.46;102034.44;5053337;28;20218;-57
2022/09/20 07:33:52;;;;;;;7.73;2.83;;;15.90;75.00;;;19.25;53.24;102027.69;5052684;28;20222;-54
2022/09/20 07:36:20;;;;;;;5.57;2.67;;;15.90;74.90;;;19.29;52.98;102042.28;5054310;28;20205;-56
2022/09/20 07:38:49;;;;;;;7.63;2.80;;;16.00;74.70;;;19.29;52.94;102044.94;5052920;28;20541;-56
2022/09/20 07:41:17;;;;;;;12.23;3.60;;;16.00;74.10;;;19.24;52.95;102042.06;5050499;28;20194;-55
2022/09/20 07:43:46;;;;;;;8.80;3.30;;;16.00;73.70;;;19.20;52.75;102046.16;5052451;28;20229;-56
2022/09/20 07:46:13;;;;;;;5.47;3.20;;;16.00;73.70;;;19.24;52.71;102039.38;5052844;28;20535;-55
2022/09/20 07:48:41;;;;;;;6.00;2.80;;;15.90;73.90;;;19.27;52.81;102042.50;5052569;28;20197;-55
2022/09/20 07:51:12;;;;;;;9.40;3.33;;;15.90;73.80;;;19.36;52.79;102040.50;5052443;28;20218;-55
2022/09/20 07:53:40;;;;;;;7.53;2.47;;;16.00;74.10;;;19.74;52.31;102043.47;5053190;28;20232;-56
2022/09/20 07:56:11;;;;;;;8.33;2.07;;;16.10;74.50;;;20.19;51.65;102048.03;5053704;28;20197;-55
2022/09/20 07:58:39;;;;;;;7.33;2.60;;;16.20;74.10;;;20.55;50.39;102061.03;5051662;28;20251;-57
2022/09/20 08:01:11;;;;;;;3.73;1.93;;;16.40;73.80;;;20.87;50.06;102065.53;5052540;28;20202;-56
2022/09/20 08:03:39;;;;;;;4.10;1.67;;;16.60;73.30;;;21.23;49.12;102063.16;5053418;28;20221;-54
2022/09/20 08:06:10;;;;;;;5.03;1.70;;;16.80;72.60;;;21.59;48.12;102065.25;5053407;28;20194;-55
2022/09/20 08:08:40;;;;;;;4.53;2.10;;;17.00;71.30;;;21.82;47.26;102075.47;5052889;28;20663;-58
2022/09/20 08:11:11;;;;;;;5.63;1.80;;;17.30;70.60;;;21.80;47.05;102074.84;5051715;28;20216;-53
2022/09/20 08:13:42;;;;;;;4.80;1.90;;;17.50;70.00;;;21.64;47.24;102084.22;5051786;28;20326;-54
2022/09/20 08:16:35;;;;;;;5.63;2.10;;;17.60;69.20;;;21.47;47.75;102080.38;5032880;28;20278;-54
2022/09/20 08:19:03;;;;;;;4.23;1.90;;;17.60;69.20;;;21.32;48.00;102074.47;5033091;28;20217;-54
2022/09/20 08:21:37;;;;;;;9.13;2.10;;;17.60;68.20;;;21.15;47.57;102070.63;5032841;28;20183;-57
2022/09/20 08:24:05;;;;;;;4.13;1.87;;;17.60;68.30;;;21.05;48.52;102071.06;5031964;28;20213;-56
2022/09/20 08:26:34;;;;;;;6.30;2.10;;;17.60;68.40;;;21.11;48.95;102072.88;5032620;28;20273;-56
2022/09/20 08:29:06;;;;;;;3.13;1.70;;;17.60;70.00;;;21.98;48.44;102075.78;5032616;28;20186;-55
2022/09/20 08:31:40;;;;;;;3.50;1.87;;;17.80;70.40;;;23.19;45.89;102071.59;5033109;28;20202;-55
2022/09/20 08:34:12;;;;;;;7.83;2.27;;;18.20;69.70;;;23.69;44.49;102076.75;5031098;28;20237;-57
2022/09/20 08:36:45;;;;;;;4.73;3.10;;;18.70;67.90;;;23.80;43.23;102074.09;5032687;28;20190;-55
2022/09/20 08:39:13;;;;;;;5.00;1.67;;;19.10;65.60;;;23.79;42.85;102066.28;5032452;28;20187;-53
2022/09/20 08:42:21;;;;;;;3.80;1.67;;;19.30;62.90;;;23.65;42.10;102076.41;5032171;28;20785;-55
2022/09/20 08:44:55;;;;;;;4.03;2.50;;;19.50;61.40;;;23.42;42.31;102068.22;5031254;28;20179;-54
2022/09/20 08:47:29;;;;;;;5.67;1.90;;;19.50;60.70;;;23.16;42.74;102072.03;5032552;28;20262;-53
2022/09/20 08:50:01;;;;;;;4.50;2.30;;;19.40;60.50;;;22.97;42.94;102078.44;5033544;28;20183;-54
2022/09/20 08:52:38;;;;;;;3.77;1.90;;;19.30;60.40;;;22.81;42.99;102071.81;5032094;28;20242;-53
2022/09/20 08:55:15;;;;;;;3.40;1.47;;;19.20;60.70;;;22.69;43.29;102070.06;5031619;28;20206;-54
2022/09/20 08:57:47;;;;;;;4.53;1.90;;;19.10;61.20;;;22.62;43.40;102072.81;5032645;28;20259;-56
2022/09/20 09:00:19;;;;;;;1.47;1.20;;;19.00;61.00;;;22.62;43.40;102080.06;5032671;28;20563;-55
2022/09/20 09:02:53;;;;;;;2.00;1.80;;;19.00;61.50;;;22.64;43.31;102077.97;5031916;28;20249;-53
2022/09/20 09:05:31;;;;;;;6.33;3.67;;;18.90;61.20;;;22.59;43.02;102081.28;5041283;28;20559;-54
2022/09/20 09:08:04;;;;;;;3.10;1.30;;;18.90;61.60;;;22.58;42.95;102068.88;5052778;28;20257;-54
2022/09/20 09:10:37;;;;;;;3.77;1.43;;;18.90;61.00;;;22.61;43.06;102076.53;5051715;28;20193;-55
2022/09/20 09:13:24;;;;;;;2.83;1.20;;;18.90;61.20;;;22.63;42.83;102071.75;5053505;28;20213;-53
2022/09/20 09:15:59;;;;;;;2.10;1.07;;;18.90;60.30;;;22.75;42.55;102074.53;5052862;28;20537;-53
2022/09/20 09:18:34;;;;;;;3.80;1.27;;;18.90;60.40;;;23.11;42.30;102071.03;5051530;28;20223;-56
2022/09/20 09:21:03;;;;;;;2.27;1.30;;;19.00;60.50;;;23.22;41.72;102078.38;5051714;28;20178;-55
2022/09/20 09:23:40;;;;;;;2.60;1.10;;;19.20;60.40;;;23.11;41.91;102076.41;5050888;28;20582;-61
2022/09/20 09:26:17;;;;;;;2.87;1.50;;;19.20;59.50;;;22.92;41.53;102080.19;5051768;28;20212;-56
2022/09/20 09:28:45;;;;;;;2.17;1.27;;;19.30;59.00;;;22.72;41.99;102075.81;5049269;28;20263;-56
2022/09/20 09:31:24;;;;;;;3.03;1.60;;;19.20;58.90;;;22.60;42.42;102082.94;5051374;28;20327;-56
2022/09/20 09:33:54;;;;;;;3.47;1.53;;;19.20;59.50;;;22.51;42.23;102084.22;5048635;28;20274;-55
2022/09/20 09:36:24;;;;;;;3.43;1.40;;;19.10;59.10;;;22.35;42.66;102079.41;5051412;28;20190;-56
2022/09/20 09:39:15;;;;;;;3.03;1.60;;;19.00;59.30;;;22.08;43.22;102083.38;5048743;28;20201;-54
2022/09/20 09:41:43;;;;;;;3.30;1.40;;;18.80;59.50;;;21.91;43.20;102087.59;5037279;28;20212;-57
2022/09/20 09:44:21;;;;;;;8.30;2.13;;;18.70;59.50;;;21.66;43.12;102089.34;5031814;28;20204;-54
2022/09/20 09:46:52;;;;;;;2.03;1.50;;;18.60;59.80;;;21.50;43.79;102096.84;5031294;28;20190;-58
2022/09/20 09:49:23;;;;;;;6.13;1.93;;;18.40;60.30;;;21.35;44.47;102107.00;5031509;28;20312;-56
2022/09/20 09:52:14;;;;;;;2.90;1.63;;;18.30;60.70;;;21.19;44.41;102102.13;5031023;28;20214;-57
2022/09/20 09:54:48;;;;;;;3.33;2.17;;;18.10;61.30;;;21.08;44.89;102097.44;5031640;28;20179;-55
2022/09/20 09:57:34;;;;;;;3.53;2.60;;;18.00;62.30;;;21.00;45.86;102111.00;5032068;28;20203;-55
2022/09/20 10:00:11;;;;;;;4.27;2.20;;;17.90;63.50;;;20.97;46.65;102130.16;5032299;28;20652;-56
2022/09/20 10:03:27;;;;;;;4.33;2.30;;;17.80;64.50;;;20.74;46.98;102148.50;5032538;28;20220;-54
2022/09/20 10:06:13;;;;;;;5.73;2.43;;;17.80;66.20;;;20.56;47.55;102151.78;5033222;28;20202;-56
2022/09/20 10:09:10;;;;;;;2.63;2.33;;;17.60;65.30;;;20.31;47.97;102155.25;5032242;28;20187;-55
2022/09/20 10:12:03;;;;;;;3.50;2.53;;;17.50;65.80;;;20.05;49.14;102154.16;5030699;28;20737;-54
2022/09/20 10:14:54;;;;;;;4.53;1.50;;;17.30;66.60;;;19.89;49.13;102143.84;5032012;28;20198;-54
2022/09/20 10:17:46;;;;;;;1.87;1.30;;;17.20;67.30;;;19.74;49.19;102151.19;5031235;28;20198;-54
2022/09/20 10:20:35;;;;;;;4.97;2.10;;;17.00;67.20;;;19.63;49.54;102149.09;5030900;28;20213;-56
2022/09/20 10:23:27;;;;;;;3.63;2.60;;;16.80;67.50;;;19.55;49.93;102131.38;5030886;28;20210;-56
2022/09/20 10:26:57;;;;;;;5.33;2.90;;;16.60;68.30;;;19.50;50.14;102133.81;5031326;28;20674;-56
2022/09/20 10:29:45;;;;;;;19.43;16.77;;;16.50;69.00;;;19.53;50.65;102137.94;5029184;28;20202;-53
2022/09/20 10:32:32;;;;;;;5.67;3.50;;;16.50;70.20;;;19.64;50.38;102125.84;5049919;28;20225;-56
2022/09/20 10:35:24;;;;;;;3.03;1.90;;;16.50;70.10;;;19.75;51.21;102128.78;5050870;28;20206;-53
2022/09/20 10:38:19;;;;;;;7.33;4.40;;;16.50;71.20;;;19.94;50.42;102124.53;5049319;28;20206;-57
2022/09/20 10:44:15;;;;;;;18.70;14.93;;;16.70;71.30;;;21.18;48.61;102129.91;5051272;28;20197;-55
2022/09/20 10:46:58;;;;;;;2.83;1.73;;;17.00;70.80;;;22.51;46.34;102137.91;5049517;28;20570;-59
2022/09/20 10:49:38;;;;;;;3.43;1.60;;;17.40;70.30;;;23.41;43.71;102128.41;5049737;28;20205;-55
2022/09/20 10:52:42;;;;;;;2.80;1.57;;;18.00;67.10;;;23.76;42.63;102137.47;5050166;28;20210;-56
2022/09/20 10:55:33;;;;;;;2.47;1.43;;;18.60;64.20;;;23.87;41.61;102134.00;5048604;28;20263;-56
2022/09/20 10:58:40;;;;;;;3.97;1.57;;;19.10;62.50;;;24.11;41.03;102129.56;5050208;28;20206;-54
2022/09/20 11:01:22;;;;;;;2.23;1.60;;;19.40;61.60;;;24.22;40.86;102126.91;5065441;28;20197;-57
2022/09/20 11:04:30;;;;;;;2.30;1.80;;;19.70;60.40;;;24.16;39.67;102125.13;5049671;28;20220;-56
2022/09/20 11:07:10;;;;;;;4.83;2.73;;;19.90;58.90;;;24.05;39.29;102133.97;5027332;28;20556;-56
2022/09/20 11:09:43;;;;;;;3.10;1.63;;;20.00;57.10;;;23.85;38.73;102132.59;5033756;28;20228;-56
2022/09/20 11:12:24;;;;;;;3.70;2.20;;;20.00;55.40;;;23.67;39.58;102132.63;5034044;28;20226;-56
2022/09/20 11:14:58;;;;;;;1.77;1.07;;;19.90;56.20;;;23.55;39.31;102141.47;5033974;28;20214;-55
2022/09/20 11:17:35;;;;;;;3.13;1.67;;;19.90;55.00;;;23.41;39.07;102142.69;5034017;28;20194;-53
2022/09/20 11:20:14;;;;;;;2.83;1.90;;;19.80;55.00;;;23.33;39.50;102147.50;5034213;28;20635;-55
2022/09/20 11:22:48;;;;;;;2.83;1.30;;;19.70;55.80;;;23.17;39.79;102138.16;5033864;28;20210;-56
2022/09/20 11:25:23;;;;;;;3.07;1.40;;;19.60;56.30;;;23.02;40.27;102142.25;5034240;28;20324;-57
2022/09/20 11:28:08;;;;;;;2.80;1.50;;;19.50;56.80;;;22.83;40.39;102142.22;5034273;28;20186;-56